createdAt,value
2022-12-03T00:00:53.018Z,74.31
2022-12-03T00:03:26.863Z,74.04
2022-12-03T00:05:58.695Z,74.20
2022-12-03T00:08:30.229Z,74.03
2022-12-03T00:11:01.803Z,74.17
2022-12-03T00:13:33.514Z,74.13
2022-12-03T00:16:05.553Z,74.14
2022-12-03T00:18:37.121Z,74.00
2022-12-03T00:21:09.271Z,73.94
2022-12-03T00:23:42.466Z,73.96
2022-12-03T00:26:12.801Z,74.02
2022-12-03T00:28:44.404Z,74.12
2022-12-03T00:31:16.149Z,74.01
2022-12-03T00:33:47.778Z,73.93
2022-12-03T00:36:20.080Z,74.03
2022-12-03T00:38:51.748Z,73.91
2022-12-03T00:41:23.237Z,73.95
2022-12-03T00:43:57.477Z,74.26
2022-12-03T00:46:29.454Z,74.07
2022-12-03T00:49:01.175Z,73.96
2022-12-03T00:51:32.786Z,73.92
2022-12-03T00:54:04.532Z,73.86
2022-12-03T00:56:36.042Z,73.85
2022-12-03T00:59:07.523Z,74.24
2022-12-03T01:01:39.110Z,74.11
2022-12-03T01:04:10.771Z,74.15
2022-12-03T01:06:42.475Z,74.06
2022-12-03T01:09:14.098Z,73.95
2022-12-03T01:11:45.608Z,74.11
2022-12-03T01:14:19.708Z,74.06
2022-12-03T01:16:51.483Z,74.18
2022-12-03T01:19:24.234Z,74.20
2022-12-03T01:21:56.188Z,74.17
2022-12-03T01:24:27.961Z,73.89
2022-12-03T01:26:59.500Z,74.11
2022-12-03T01:29:31.053Z,73.96
2022-12-03T01:32:19.450Z,73.94
2022-12-03T01:34:53.299Z,74.20
2022-12-03T01:37:26.939Z,73.90
2022-12-03T01:39:58.633Z,74.08
2022-12-03T01:42:34.344Z,73.98
2022-12-03T01:45:07.627Z,74.08
2022-12-03T01:47:41.324Z,73.92
2022-12-03T01:50:20.565Z,74.03
2022-12-03T01:52:52.201Z,74.00
2022-12-03T01:55:26.000Z,73.96
2022-12-03T01:58:00.656Z,74.16
2022-12-03T02:00:32.681Z,73.83
2022-12-03T02:03:12.520Z,73.71
2022-12-03T02:05:44.137Z,73.77
2022-12-03T02:08:33.599Z,73.68
2022-12-03T02:11:09.306Z,74.01
2022-12-03T02:13:41.053Z,74.12
2022-12-03T02:16:12.802Z,73.94
2022-12-03T02:18:44.969Z,74.03
2022-12-03T02:21:25.088Z,74.03
2022-12-03T02:24:05.198Z,74.20
2022-12-03T02:26:36.713Z,73.91
2022-12-03T02:29:08.451Z,73.74
2022-12-03T02:31:40.117Z,73.88
2022-12-03T02:34:12.691Z,73.75
2022-12-03T02:36:44.210Z,73.95
2022-12-03T02:39:15.702Z,73.86
2022-12-03T02:42:05.040Z,73.92
2022-12-03T02:44:36.842Z,73.91
2022-12-03T02:47:08.548Z,73.91
2022-12-03T02:49:40.512Z,73.96
2022-12-03T02:52:12.149Z,73.71
2022-12-03T02:54:44.158Z,73.89
2022-12-03T02:57:16.144Z,73.90
2022-12-03T02:59:48.632Z,73.96
2022-12-03T03:02:21.600Z,73.80
2022-12-03T03:04:53.915Z,73.86
2022-12-03T03:07:26.076Z,73.79
2022-12-03T03:09:58.903Z,73.95
2022-12-03T03:12:32.628Z,73.94
2022-12-03T03:15:11.162Z,73.87
2022-12-03T03:17:43.828Z,73.94
2022-12-03T03:20:16.401Z,73.86
2022-12-03T03:22:48.060Z,73.90
2022-12-03T03:25:22.445Z,73.80
2022-12-03T03:27:54.007Z,73.93
2022-12-03T03:30:25.515Z,73.74
2022-12-03T03:32:57.430Z,73.92
2022-12-03T03:35:29.696Z,73.86
2022-12-03T03:38:01.548Z,73.71
2022-12-03T03:40:33.370Z,73.89
2022-12-03T03:43:05.704Z,73.74
2022-12-03T03:45:37.424Z,73.68
2022-12-03T03:48:09.594Z,73.91
2022-12-03T03:50:41.832Z,73.72
2022-12-03T03:53:14.078Z,73.88
2022-12-03T03:55:46.058Z,73.87
2022-12-03T03:58:17.891Z,73.85
2022-12-03T04:00:49.528Z,73.79
2022-12-03T04:03:21.137Z,73.82
2022-12-03T04:05:52.717Z,73.83
2022-12-03T04:08:24.237Z,74.07
2022-12-03T04:11:13.060Z,73.73
2022-12-03T04:13:44.677Z,73.81
2022-12-03T04:16:16.196Z,73.82
2022-12-03T04:18:47.926Z,73.87
2022-12-03T04:21:39.167Z,73.81
2022-12-03T04:24:12.484Z,73.89
2022-12-03T04:27:01.945Z,73.88
2022-12-03T04:29:33.490Z,73.78
2022-12-03T04:32:22.638Z,73.84
2022-12-03T04:35:11.735Z,73.70
2022-12-03T04:37:43.622Z,73.87
2022-12-03T04:40:29.844Z,73.97
2022-12-03T04:43:01.339Z,74.22
2022-12-03T04:45:32.897Z,74.18
2022-12-03T04:48:04.654Z,74.20
2022-12-03T04:50:36.215Z,74.24
2022-12-03T04:53:07.772Z,74.31
2022-12-03T04:55:39.257Z,74.15
2022-12-03T04:58:11.432Z,74.22
2022-12-03T05:00:42.997Z,74.38
2022-12-03T05:03:14.549Z,74.14
2022-12-03T05:05:47.572Z,74.25
2022-12-03T05:08:19.120Z,74.33
2022-12-03T05:10:50.775Z,74.60
2022-12-03T05:13:22.316Z,74.39
2022-12-03T05:15:53.927Z,74.38
2022-12-03T05:18:25.521Z,74.28
2022-12-03T05:20:57.252Z,74.36
2022-12-03T05:23:28.880Z,74.40
2022-12-03T05:26:00.494Z,74.23
2022-12-03T05:28:32.198Z,74.36
2022-12-03T05:31:05.221Z,74.60
2022-12-03T05:33:42.456Z,74.36
2022-12-03T05:36:15.867Z,74.46
2022-12-03T05:38:47.579Z,74.69
2022-12-03T05:41:36.930Z,74.61
2022-12-03T05:44:08.700Z,74.57
2022-12-03T05:46:40.251Z,74.57
2022-12-03T05:49:11.815Z,74.42
2022-12-03T05:51:43.303Z,74.51
2022-12-03T05:54:14.783Z,74.51
2022-12-03T05:56:46.345Z,74.61
2022-12-03T05:59:17.970Z,74.74
2022-12-03T06:01:49.627Z,74.70
2022-12-03T06:04:21.241Z,74.68
2022-12-03T06:06:52.764Z,74.81
2022-12-03T06:09:24.286Z,74.75
2022-12-03T06:11:55.915Z,74.99
2022-12-03T06:14:30.112Z,74.65
2022-12-03T06:17:01.631Z,74.91
2022-12-03T06:19:33.585Z,74.84
2022-12-03T06:22:05.128Z,74.78
2022-12-03T06:24:36.614Z,75.24
2022-12-03T06:27:08.456Z,75.22
2022-12-03T06:29:40.206Z,75.19
2022-12-03T06:32:12.377Z,75.32
2022-12-03T06:34:43.889Z,75.32
2022-12-03T06:37:15.413Z,75.04
2022-12-03T06:39:46.956Z,75.37
2022-12-03T06:42:18.502Z,75.29
2022-12-03T06:44:49.971Z,75.58
2022-12-03T06:47:21.488Z,75.40
2022-12-03T06:49:52.968Z,75.21
2022-12-03T06:52:24.433Z,75.38
2022-12-03T06:54:56.219Z,75.60
2022-12-03T06:57:28.102Z,75.62
2022-12-03T06:59:59.623Z,75.65
2022-12-03T07:02:31.184Z,75.61
2022-12-03T07:05:03.006Z,75.74
2022-12-03T07:07:34.644Z,75.61
2022-12-03T07:10:07.853Z,75.92
2022-12-03T07:12:39.358Z,75.92
2022-12-03T07:15:12.319Z,75.65
2022-12-03T07:17:43.898Z,76.09
2022-12-03T07:20:16.758Z,76.16
2022-12-03T07:22:48.293Z,75.79
2022-12-03T07:25:23.463Z,76.03
2022-12-03T07:27:55.513Z,75.90
2022-12-03T07:30:27.910Z,75.89
2022-12-03T07:32:59.669Z,75.98
2022-12-03T07:35:31.297Z,76.09
2022-12-03T07:38:02.933Z,76.12
2022-12-03T07:40:34.479Z,76.20
2022-12-03T07:43:06.133Z,76.14
2022-12-03T07:45:37.668Z,76.18
2022-12-03T07:48:09.304Z,76.27
2022-12-03T07:50:40.895Z,76.20
2022-12-03T07:53:12.418Z,76.37
2022-12-03T07:55:43.958Z,76.13
2022-12-03T07:58:15.495Z,76.08
2022-12-03T08:00:47.020Z,76.08
2022-12-03T08:03:18.584Z,76.10
2022-12-03T08:05:50.129Z,76.02
2022-12-03T08:08:21.791Z,76.19
2022-12-03T08:10:53.284Z,76.17
2022-12-03T08:13:24.803Z,76.22
2022-12-03T08:15:58.872Z,76.14
2022-12-03T08:18:31.130Z,76.32
2022-12-03T08:21:02.903Z,76.24
2022-12-03T08:23:35.578Z,76.30
2022-12-03T08:26:14.151Z,76.36
2022-12-03T08:28:45.765Z,76.41
2022-12-03T08:31:25.786Z,76.22
2022-12-03T08:34:16.692Z,76.34
2022-12-03T08:36:52.262Z,76.05
2022-12-03T08:39:33.479Z,76.10
2022-12-03T08:42:35.500Z,76.50
2022-12-03T08:45:35.276Z,76.43
2022-12-03T08:51:22.249Z,76.32
2022-12-03T08:54:12.894Z,76.63
2022-12-03T08:59:36.427Z,76.27
2022-12-03T09:02:19.860Z,76.35
2022-12-03T09:04:53.317Z,76.44
2022-12-03T09:07:25.349Z,76.42
2022-12-03T09:09:57.297Z,76.75
2022-12-03T09:12:28.919Z,76.62
2022-12-03T09:15:00.474Z,76.69
2022-12-03T09:17:32.266Z,76.86
2022-12-03T09:20:05.414Z,76.81
2022-12-03T09:22:36.937Z,76.70
2022-12-03T09:25:09.776Z,76.67
2022-12-03T09:27:41.315Z,76.66
2022-12-03T09:30:14.505Z,76.66
2022-12-03T09:32:46.085Z,76.68
2022-12-03T09:35:17.846Z,76.62
2022-12-03T09:37:49.440Z,76.64
2022-12-03T09:40:21.477Z,76.57
2022-12-03T09:42:53.703Z,76.67
2022-12-03T09:45:25.284Z,76.55
2022-12-03T09:47:57.716Z,76.58
2022-12-03T09:50:29.719Z,76.49
2022-12-03T09:53:04.579Z,76.46
2022-12-03T09:55:36.437Z,76.43
2022-12-03T09:58:13.475Z,76.73
2022-12-03T10:00:48.137Z,76.67
2022-12-03T10:03:29.454Z,76.35
2022-12-03T10:06:01.517Z,76.48
2022-12-03T10:08:33.500Z,76.41
2022-12-03T10:11:05.105Z,76.54
2022-12-03T10:13:38.594Z,76.42
2022-12-03T10:16:13.492Z,76.40
2022-12-03T10:18:48.531Z,76.23
2022-12-03T10:24:27.026Z,76.26
2022-12-03T10:27:00.612Z,76.13
2022-12-03T10:29:34.219Z,76.12
2022-12-03T10:38:03.409Z,76.13
2022-12-03T10:40:36.960Z,75.85
2022-12-03T10:43:24.387Z,76.08
2022-12-03T10:46:13.615Z,76.17
2022-12-03T10:48:45.229Z,76.27
2022-12-03T10:51:21.257Z,76.19
2022-12-03T10:53:54.301Z,76.19
2022-12-03T10:56:27.823Z,76.05
2022-12-03T10:58:58.321Z,76.00
2022-12-03T11:04:36.842Z,75.70
2022-12-03T11:10:13.948Z,75.65
2022-12-03T11:13:05.991Z,75.42
2022-12-03T11:15:46.237Z,75.78
2022-12-03T11:19:03.228Z,76.21
2022-12-03T11:21:34.905Z,75.94
2022-12-03T11:24:21.732Z,75.91
2022-12-03T11:27:25.481Z,75.77
2022-12-03T11:30:02.433Z,75.45
2022-12-03T11:33:06.432Z,75.66
2022-12-03T11:36:15.478Z,75.66
2022-12-03T11:39:03.918Z,76.00
2022-12-03T11:41:36.821Z,75.96
2022-12-03T11:44:32.216Z,75.97
2022-12-03T11:47:14.753Z,75.77
2022-12-03T11:49:50.198Z,75.66
2022-12-03T11:55:34.398Z,75.26
2022-12-03T11:58:14.508Z,75.40
2022-12-03T12:01:04.794Z,75.43
2022-12-03T12:03:39.636Z,75.58
2022-12-03T12:06:13.403Z,75.67
2022-12-03T12:08:58.534Z,75.61
2022-12-03T12:11:31.879Z,75.44
2022-12-03T12:14:04.806Z,75.28
2022-12-03T12:16:51.699Z,75.03
2022-12-03T12:22:32.454Z,74.71
2022-12-03T12:25:06.088Z,74.57
2022-12-03T12:27:45.347Z,74.83
2022-12-03T12:30:18.518Z,74.83
2022-12-03T12:32:52.613Z,74.79
2022-12-03T12:35:35.328Z,74.59
2022-12-03T12:38:18.762Z,74.69
2022-12-03T12:40:53.530Z,74.74
2022-12-03T12:43:31.890Z,74.74
2022-12-03T12:46:46.035Z,74.90
2022-12-03T12:49:12.255Z,75.23
2022-12-03T12:54:36.042Z,75.38
2022-12-03T12:57:14.053Z,75.30
2022-12-03T12:59:45.640Z,75.21
2022-12-03T13:02:39.525Z,75.19
2022-12-03T13:08:10.111Z,75.60
2022-12-03T13:10:43.464Z,75.64
2022-12-03T13:16:12.971Z,75.72
2022-12-03T13:18:48.025Z,75.57
2022-12-03T13:27:48.415Z,75.87
2022-12-03T13:30:24.955Z,75.74
2022-12-03T13:33:07.639Z,75.87
2022-12-03T13:38:29.129Z,76.21
2022-12-03T13:41:07.081Z,76.35
2022-12-03T13:43:44.532Z,76.22
2022-12-03T13:49:16.776Z,76.82
2022-12-03T13:51:48.973Z,76.81
2022-12-03T13:54:24.928Z,76.66
2022-12-03T13:59:45.974Z,76.95
2022-12-03T14:02:17.614Z,77.06
2022-12-03T14:04:55.362Z,77.10
2022-12-03T14:07:30.521Z,77.17
2022-12-03T14:10:02.204Z,77.05
2022-12-03T14:12:37.992Z,77.42
2022-12-03T14:15:11.500Z,77.51
2022-12-03T14:17:41.504Z,77.39
2022-12-03T14:20:14.604Z,77.61
2022-12-03T14:22:46.395Z,77.62
2022-12-03T14:25:29.655Z,77.58
2022-12-03T14:28:01.392Z,77.46
2022-12-03T14:30:32.925Z,77.65
2022-12-03T14:33:04.441Z,77.65
2022-12-03T14:35:36.007Z,77.61
2022-12-03T14:38:07.559Z,77.59
2022-12-03T14:40:40.314Z,77.74
2022-12-03T14:48:43.993Z,78.08
2022-12-03T14:51:25.710Z,78.14
2022-12-03T14:53:57.204Z,78.28
2022-12-03T14:56:34.443Z,78.22
2022-12-03T14:59:07.131Z,78.40
2022-12-03T15:01:38.841Z,78.46
2022-12-03T15:06:57.153Z,78.34
2022-12-03T15:09:28.692Z,78.55
2022-12-03T15:14:46.209Z,78.44
2022-12-03T15:20:10.227Z,78.43
2022-12-03T15:22:41.818Z,78.65
2022-12-03T15:25:13.665Z,78.50
2022-12-03T15:27:45.252Z,78.52
2022-12-03T15:30:17.629Z,78.53
2022-12-03T15:35:39.421Z,78.48
2022-12-03T15:43:55.028Z,78.65
2022-12-03T15:46:28.217Z,78.71
2022-12-03T15:49:12.870Z,78.82
2022-12-03T15:54:45.407Z,78.87
2022-12-03T16:00:15.577Z,79.05
2022-12-03T16:02:52.646Z,78.94
2022-12-03T16:05:27.660Z,78.83
2022-12-03T16:07:59.247Z,78.83
2022-12-03T16:13:17.603Z,78.97
2022-12-03T16:15:49.270Z,78.95
2022-12-03T16:18:20.971Z,78.93
2022-12-03T16:20:52.500Z,78.99
2022-12-03T16:23:35.523Z,78.87
2022-12-03T16:26:10.183Z,78.76
2022-12-03T16:28:41.947Z,78.69
2022-12-03T16:31:14.068Z,78.78
2022-12-03T16:33:45.674Z,78.84
2022-12-03T16:36:17.857Z,78.63
2022-12-03T16:41:34.795Z,78.65
2022-12-03T16:44:06.628Z,78.60
2022-12-03T16:49:24.781Z,78.47
2022-12-03T16:54:47.653Z,78.34
2022-12-03T17:00:11.626Z,78.30
2022-12-03T17:02:43.312Z,78.43
2022-12-03T17:05:15.200Z,78.29
2022-12-03T17:07:46.802Z,78.26
2022-12-03T17:10:18.481Z,78.27
2022-12-03T17:15:42.196Z,78.24
2022-12-03T17:18:13.927Z,78.08
2022-12-03T17:20:45.507Z,78.29
2022-12-03T17:23:18.516Z,78.29
2022-12-03T17:25:49.987Z,78.30
2022-12-03T17:28:21.525Z,78.39
2022-12-03T17:30:53.132Z,78.30
2022-12-03T17:33:24.781Z,78.35
2022-12-03T17:35:56.292Z,78.35
2022-12-03T17:38:28.059Z,78.43
2022-12-03T17:40:59.531Z,78.39
2022-12-03T17:43:31.038Z,78.34
2022-12-03T17:46:02.575Z,78.31
2022-12-03T17:48:35.272Z,78.41
2022-12-03T17:51:07.318Z,78.51
2022-12-03T17:53:38.837Z,78.26
2022-12-03T17:56:10.633Z,78.36
2022-12-03T17:58:42.129Z,78.34
2022-12-03T18:01:14.217Z,78.38
2022-12-03T18:03:45.760Z,78.15
2022-12-03T18:06:17.295Z,78.22
2022-12-03T18:08:48.796Z,78.33
2022-12-03T18:11:20.367Z,78.40
2022-12-03T18:13:52.968Z,78.19
2022-12-03T18:16:25.782Z,78.19
2022-12-03T18:19:00.902Z,78.30
2022-12-03T18:21:36.636Z,77.94
2022-12-03T18:24:10.157Z,78.05
2022-12-03T18:26:40.286Z,78.12
2022-12-03T18:29:11.786Z,78.24
2022-12-03T18:31:43.354Z,78.21
2022-12-03T18:34:14.962Z,78.25
2022-12-03T18:36:46.976Z,78.25
2022-12-03T18:39:25.860Z,78.18
2022-12-03T18:41:57.426Z,78.32
2022-12-03T18:44:29.087Z,78.19
2022-12-03T18:47:02.463Z,78.11
2022-12-03T18:49:32.631Z,78.19
2022-12-03T18:52:04.305Z,78.29
2022-12-03T18:54:36.108Z,78.23
2022-12-03T18:57:07.822Z,78.13
2022-12-03T18:59:39.568Z,78.12
2022-12-03T19:02:38.665Z,78.18
2022-12-03T19:05:10.468Z,78.10
2022-12-03T19:07:43.292Z,78.26
2022-12-03T19:10:15.223Z,78.20
2022-12-03T19:12:46.805Z,78.18
2022-12-03T19:15:18.896Z,78.35
2022-12-03T19:17:52.328Z,78.29
2022-12-03T19:20:23.860Z,78.10
2022-12-03T19:22:55.538Z,78.20
2022-12-03T19:25:27.071Z,78.23
2022-12-03T19:27:58.642Z,78.08
2022-12-03T19:30:30.262Z,78.25
2022-12-03T19:33:01.880Z,78.12
2022-12-03T19:35:33.528Z,78.35
2022-12-03T19:38:05.080Z,78.36
2022-12-03T19:40:36.613Z,78.35
2022-12-03T19:43:08.131Z,78.31
2022-12-03T19:45:39.708Z,78.22
2022-12-03T19:48:11.221Z,78.32
2022-12-03T19:51:02.948Z,78.31
2022-12-03T19:53:42.687Z,78.49
2022-12-03T19:56:16.145Z,78.24
2022-12-03T19:58:48.639Z,78.28
2022-12-03T20:01:22.049Z,78.35
2022-12-03T20:03:55.576Z,78.32
2022-12-03T20:06:30.631Z,78.53
2022-12-03T20:09:04.881Z,78.51
2022-12-03T20:11:37.146Z,78.46
2022-12-03T20:14:10.542Z,78.53
2022-12-03T20:16:42.787Z,78.61
2022-12-03T20:19:17.431Z,78.62
2022-12-03T20:21:49.297Z,78.58
2022-12-03T20:24:20.905Z,78.57
2022-12-03T20:26:52.623Z,78.64
2022-12-03T20:29:24.146Z,78.54
2022-12-03T20:31:56.015Z,78.58
2022-12-03T20:34:27.633Z,78.57
2022-12-03T20:36:59.131Z,78.64
2022-12-03T20:39:30.674Z,78.67
2022-12-03T20:42:02.179Z,78.75
2022-12-03T20:44:33.780Z,78.88
2022-12-03T20:47:05.449Z,78.60
2022-12-03T20:49:40.261Z,78.65
2022-12-03T20:52:12.119Z,78.65
2022-12-03T20:54:43.669Z,78.62
2022-12-03T20:57:15.153Z,78.60
2022-12-03T20:59:46.699Z,78.48
2022-12-03T21:02:18.248Z,78.55
2022-12-03T21:04:50.147Z,78.61
2022-12-03T21:07:22.698Z,78.77
2022-12-03T21:09:54.799Z,78.74
2022-12-03T21:12:28.015Z,78.80
2022-12-03T21:14:59.707Z,78.75
2022-12-03T21:17:31.253Z,78.84
2022-12-03T21:20:02.927Z,78.66
2022-12-03T21:22:34.405Z,78.68
2022-12-03T21:25:06.944Z,78.52
2022-12-03T21:27:38.594Z,78.64
2022-12-03T21:30:11.698Z,78.58
2022-12-03T21:32:43.162Z,78.42
2022-12-03T21:35:14.946Z,78.77
2022-12-03T21:37:46.550Z,78.77
2022-12-03T21:40:18.514Z,78.62
2022-12-03T21:42:50.043Z,78.49
2022-12-03T21:45:25.027Z,78.57
2022-12-03T21:47:56.756Z,78.44
2022-12-03T21:50:28.449Z,78.38
2022-12-03T21:52:59.943Z,78.48
2022-12-03T21:55:31.476Z,78.47
2022-12-03T21:58:03.030Z,78.28
2022-12-03T22:00:34.618Z,78.26
2022-12-03T22:03:06.209Z,78.33
2022-12-03T22:05:40.077Z,78.41
2022-12-03T22:08:13.774Z,78.30
2022-12-03T22:10:45.392Z,78.40
2022-12-03T22:13:16.962Z,78.36
2022-12-03T22:15:48.613Z,78.20
2022-12-03T22:18:20.241Z,78.62
2022-12-03T22:20:51.833Z,78.69
2022-12-03T22:23:23.391Z,78.71
2022-12-03T22:26:02.212Z,78.95
2022-12-03T22:28:34.591Z,78.77
2022-12-03T22:31:09.568Z,78.85
2022-12-03T22:33:41.857Z,78.79
2022-12-03T22:36:20.607Z,78.66
2022-12-03T22:38:54.135Z,78.83
2022-12-03T22:41:25.673Z,78.81
2022-12-03T22:43:57.180Z,78.82
2022-12-03T22:46:28.769Z,78.87
2022-12-03T22:49:06.500Z,78.62
2022-12-03T22:51:38.758Z,78.75
2022-12-03T22:54:11.507Z,78.75
2022-12-03T22:56:42.988Z,78.57
2022-12-03T22:59:14.724Z,78.58
2022-12-03T23:01:46.292Z,78.53
2022-12-03T23:04:17.953Z,78.64
2022-12-03T23:06:49.661Z,78.72
2022-12-03T23:09:21.261Z,78.77
2022-12-03T23:11:52.817Z,78.50
2022-12-03T23:14:24.363Z,78.65
2022-12-03T23:16:55.863Z,78.52
2022-12-03T23:19:27.368Z,78.52
2022-12-03T23:21:59.276Z,78.40
2022-12-03T23:24:30.757Z,78.37
2022-12-03T23:27:02.251Z,78.35
2022-12-03T23:29:35.135Z,78.55
2022-12-03T23:32:06.801Z,78.53
2022-12-03T23:34:38.384Z,78.54
2022-12-03T23:37:10.046Z,78.47
2022-12-03T23:39:41.764Z,78.43
2022-12-03T23:42:13.273Z,78.37
2022-12-03T23:44:44.841Z,78.56
2022-12-03T23:47:17.658Z,78.50
2022-12-03T23:49:49.239Z,78.64
2022-12-03T23:52:20.766Z,78.76
2022-12-03T23:54:52.372Z,78.68
2022-12-03T23:57:23.910Z,78.72
2022-12-03T23:59:55.634Z,78.78
